createdAt,value
2024-03-28T00:01:09.146Z,10.30
2024-03-28T00:06:11.810Z,9.95
2024-03-28T00:11:14.406Z,9.70
2024-03-28T00:16:17.003Z,9.51
2024-03-28T00:21:19.684Z,9.34
2024-03-28T00:26:22.208Z,9.20
2024-03-28T00:31:24.920Z,9.89
2024-03-28T00:36:27.546Z,12.24
2024-03-28T00:41:30.150Z,12.64
2024-03-28T00:46:32.782Z,11.21
2024-03-28T00:51:35.324Z,10.35
2024-03-28T00:56:38.036Z,9.79
2024-03-28T01:01:41.104Z,9.41
2024-03-28T01:06:43.737Z,9.15
2024-03-28T01:11:46.318Z,8.98
2024-03-28T01:16:51.403Z,8.84
2024-03-28T01:21:54.068Z,9.52
2024-03-28T01:26:57.696Z,11.82
2024-03-28T01:32:00.325Z,12.49
2024-03-28T01:37:03.077Z,11.08
2024-03-28T01:42:05.662Z,10.18
2024-03-28T01:47:25.861Z,9.63
2024-03-28T01:52:31.850Z,9.22
2024-03-28T01:57:35.111Z,8.94
2024-03-28T02:02:41.355Z,8.75
2024-03-28T02:07:43.962Z,9.48
2024-03-28T02:12:46.778Z,11.85
2024-03-28T02:17:50.953Z,12.42
2024-03-28T02:22:53.558Z,11.00
2024-03-28T02:27:56.222Z,10.09
2024-03-28T02:32:59.117Z,9.56
2024-03-28T02:38:01.786Z,9.21
2024-03-28T02:43:04.677Z,8.99
2024-03-28T02:48:09.145Z,9.36
2024-03-28T02:53:11.885Z,11.69
2024-03-28T02:58:14.442Z,12.43
2024-03-28T03:03:17.033Z,11.03
2024-03-28T03:08:19.839Z,10.10
2024-03-28T03:13:22.600Z,9.53
2024-03-28T03:18:27.977Z,9.13
2024-03-28T03:23:38.796Z,8.87
2024-03-28T03:29:00.182Z,9.67
2024-03-28T03:34:21.562Z,12.18
2024-03-28T03:39:24.920Z,12.50
2024-03-28T03:44:28.308Z,11.04
2024-03-28T03:49:31.046Z,10.16
2024-03-28T03:54:33.750Z,9.61
2024-03-28T03:59:38.338Z,9.27
2024-03-28T04:04:41.313Z,9.97
2024-03-28T04:09:44.010Z,12.29
2024-03-28T04:14:47.259Z,12.92
2024-03-28T04:19:50.103Z,11.57
2024-03-28T04:24:54.707Z,10.76
2024-03-28T04:30:01.865Z,10.31
2024-03-28T04:35:05.884Z,10.06
2024-03-28T04:40:10.282Z,9.90
2024-03-28T04:45:14.096Z,11.06
2024-03-28T04:50:18.174Z,13.26
2024-03-28T04:55:21.624Z,12.71
2024-03-28T05:00:25.695Z,11.52
2024-03-28T05:05:28.648Z,10.88
2024-03-28T05:10:31.548Z,10.50
2024-03-28T05:15:35.631Z,10.27
2024-03-28T05:20:38.276Z,10.14
2024-03-28T05:25:41.019Z,10.07
2024-03-28T05:30:43.848Z,10.87
2024-03-28T05:35:47.039Z,13.03
2024-03-28T05:40:49.704Z,12.57
2024-03-28T05:45:52.351Z,11.64
2024-03-28T05:50:55.490Z,11.13
2024-03-28T05:55:58.192Z,10.77
2024-03-28T06:01:00.974Z,11.33
2024-03-28T06:06:04.320Z,13.44
2024-03-28T06:11:07.418Z,14.58
2024-03-28T06:16:11.431Z,13.45
2024-03-28T06:21:14.228Z,12.20
2024-03-28T06:26:16.904Z,11.46
2024-03-28T06:31:22.617Z,11.87
2024-03-28T06:36:25.265Z,14.02
2024-03-28T06:41:28.731Z,14.55
2024-03-28T06:46:31.446Z,13.20
2024-03-28T06:51:34.181Z,12.40
2024-03-28T06:56:36.870Z,11.98
2024-03-28T07:01:39.615Z,12.62
2024-03-28T07:06:42.474Z,14.95
2024-03-28T07:11:47.041Z,15.08
2024-03-28T07:16:50.146Z,14.00
2024-03-28T07:21:53.149Z,13.48
2024-03-28T07:26:56.123Z,13.28
2024-03-28T07:31:58.746Z,13.92
2024-03-28T07:37:01.755Z,15.44
2024-03-28T07:42:04.961Z,14.45
2024-03-28T07:47:07.572Z,13.55
2024-03-28T07:52:10.270Z,12.93
2024-03-28T07:57:13.158Z,12.45
2024-03-28T08:02:16.141Z,13.03
2024-03-28T08:07:18.893Z,15.14
2024-03-28T08:12:21.608Z,14.80
2024-03-28T08:17:24.215Z,13.72
2024-03-28T08:22:27.035Z,13.10
2024-03-28T08:27:31.168Z,12.74
2024-03-28T08:32:35.666Z,13.30
2024-03-28T08:37:40.374Z,15.48
2024-03-28T08:42:44.267Z,15.90
2024-03-28T08:47:47.188Z,14.65
2024-03-28T08:52:50.714Z,14.11
2024-03-28T08:57:54.183Z,13.94
2024-03-28T09:02:57.067Z,14.79
2024-03-28T09:07:59.852Z,17.01
2024-03-28T09:13:03.087Z,16.72
2024-03-28T09:18:06.890Z,16.18
2024-03-28T09:23:11.352Z,15.83
2024-03-28T09:28:14.808Z,15.53
2024-03-28T09:33:17.597Z,15.28
2024-03-28T09:38:20.315Z,15.14
2024-03-28T09:43:23.405Z,15.29
2024-03-28T09:48:26.863Z,15.55
2024-03-28T09:53:30.934Z,15.84
2024-03-28T09:58:36.354Z,16.30
2024-03-28T10:03:41.879Z,16.77
2024-03-28T10:08:45.597Z,17.19
2024-03-28T10:13:48.495Z,17.23
2024-03-28T10:18:55.384Z,17.26
2024-03-28T10:23:58.238Z,17.32
2024-03-28T10:29:01.624Z,17.41
2024-03-28T10:34:05.082Z,17.72
2024-03-28T10:39:13.012Z,17.95
2024-03-28T10:44:16.706Z,18.02
2024-03-28T10:49:27.138Z,17.98
2024-03-28T10:54:47.286Z,17.87
2024-03-28T10:59:51.554Z,17.96
2024-03-28T11:04:55.821Z,18.16
2024-03-28T11:10:00.593Z,18.35
2024-03-28T11:15:05.546Z,18.53
2024-03-28T11:20:14.970Z,18.63
2024-03-28T11:25:27.637Z,18.56
2024-03-28T11:30:30.415Z,18.47
2024-03-28T11:35:33.710Z,18.40
2024-03-28T11:40:38.207Z,18.39
2024-03-28T11:45:59.368Z,18.52
2024-03-28T11:51:06.822Z,18.71
2024-03-28T11:56:14.479Z,18.76
2024-03-28T12:01:20.030Z,18.71
2024-03-28T12:06:25.118Z,18.41
2024-03-28T12:11:28.981Z,18.08
2024-03-28T12:16:31.853Z,17.86
2024-03-28T12:21:35.411Z,17.69
2024-03-28T12:26:38.147Z,17.58
2024-03-28T12:31:40.893Z,17.52
2024-03-28T12:36:43.561Z,17.35
2024-03-28T12:41:54.361Z,17.05
2024-03-28T12:46:57.270Z,16.70
2024-03-28T12:51:59.874Z,16.34
2024-03-28T12:57:04.596Z,16.02
2024-03-28T13:02:08.068Z,15.83
2024-03-28T13:07:13.323Z,15.73
2024-03-28T13:12:17.061Z,15.74
2024-03-28T13:17:19.753Z,17.43
2024-03-28T13:22:22.465Z,19.28
2024-03-28T13:27:43.443Z,19.03
2024-03-28T13:32:50.832Z,17.80
2024-03-28T13:37:54.032Z,17.20
2024-03-28T13:42:56.769Z,17.02
2024-03-28T13:48:00.219Z,17.62
2024-03-28T13:53:02.874Z,19.60
2024-03-28T13:58:05.659Z,19.39
2024-03-28T14:03:08.431Z,18.14
2024-03-28T14:08:12.138Z,17.60
2024-03-28T14:13:14.823Z,17.26
2024-03-28T14:18:18.763Z,16.88
2024-03-28T14:23:21.397Z,17.41
2024-03-28T14:28:24.901Z,19.52
2024-03-28T14:33:27.609Z,19.68
2024-03-28T14:38:30.289Z,18.57
2024-03-28T14:43:39.030Z,17.88
2024-03-28T14:48:42.357Z,17.46
2024-03-28T14:53:45.014Z,17.20
2024-03-28T14:58:47.604Z,16.94
2024-03-28T15:03:50.240Z,17.51
2024-03-28T15:08:53.002Z,19.53
2024-03-28T15:13:55.672Z,19.30
2024-03-28T15:18:59.472Z,18.01
2024-03-28T15:24:03.464Z,17.21
2024-03-28T15:29:09.296Z,16.57
2024-03-28T15:34:12.175Z,16.81
2024-03-28T15:39:15.097Z,18.20
2024-03-28T15:44:17.697Z,18.39
2024-03-28T15:49:20.330Z,16.72
2024-03-28T15:54:23.070Z,16.30
2024-03-28T15:59:25.805Z,17.50
2024-03-28T16:04:35.288Z,18.10
2024-03-28T16:09:38.062Z,18.44
2024-03-28T16:14:41.103Z,18.69
2024-03-28T16:19:43.957Z,18.25
2024-03-28T16:24:46.838Z,16.36
2024-03-28T16:29:50.234Z,16.05
2024-03-28T16:34:52.949Z,16.77
2024-03-28T16:39:56.424Z,15.60
2024-03-28T16:44:59.234Z,16.19
2024-03-28T16:50:02.345Z,16.41
2024-03-28T16:55:06.324Z,14.62
2024-03-28T17:00:09.591Z,14.05
2024-03-28T17:05:13.956Z,15.38
2024-03-28T17:10:18.470Z,14.92
2024-03-28T17:15:21.142Z,14.19
2024-03-28T17:20:23.909Z,15.25
2024-03-28T17:25:28.930Z,15.21
2024-03-28T17:30:31.682Z,13.44
2024-03-28T17:35:34.421Z,13.79
2024-03-28T17:40:37.585Z,15.21
2024-03-28T17:45:40.764Z,15.86
2024-03-28T17:50:47.024Z,14.51
2024-03-28T17:55:49.895Z,13.83
2024-03-28T18:00:52.629Z,15.22
2024-03-28T18:05:59.930Z,14.91
2024-03-28T18:11:02.610Z,13.35
2024-03-28T18:16:05.855Z,14.21
2024-03-28T18:21:08.582Z,15.08
2024-03-28T18:26:11.310Z,13.69
2024-03-28T18:31:14.018Z,13.50
2024-03-28T18:36:17.572Z,14.75
2024-03-28T18:41:20.329Z,14.12
2024-03-28T18:46:23.049Z,12.50
2024-03-28T18:51:26.272Z,13.25
2024-03-28T18:56:29.855Z,14.61
2024-03-28T19:01:35.384Z,14.11
2024-03-28T19:06:38.331Z,12.34
2024-03-28T19:11:40.978Z,12.63
2024-03-28T19:16:43.662Z,14.21
2024-03-28T19:21:46.414Z,15.00
2024-03-28T19:26:49.318Z,13.95
2024-03-28T19:31:51.997Z,12.40
2024-03-28T19:36:54.796Z,12.26
2024-03-28T19:41:57.584Z,13.88
2024-03-28T19:47:00.189Z,14.71
2024-03-28T19:52:02.856Z,14.07
2024-03-28T19:57:05.698Z,12.21
2024-03-28T20:02:08.405Z,11.90
2024-03-28T20:07:14.304Z,13.47
2024-03-28T20:12:17.399Z,14.29
2024-03-28T20:17:20.859Z,13.66
2024-03-28T20:22:24.579Z,11.82
2024-03-28T20:27:27.226Z,11.51
2024-03-28T20:32:32.485Z,13.11
2024-03-28T20:37:35.790Z,13.98
2024-03-28T20:42:38.407Z,13.37
2024-03-28T20:47:41.103Z,11.46
2024-03-28T20:52:43.874Z,11.49
2024-03-28T20:57:47.488Z,12.98
2024-03-28T21:02:51.210Z,13.70
2024-03-28T21:08:12.571Z,13.27
2024-03-28T21:13:19.671Z,11.24
2024-03-28T21:18:22.859Z,11.00
2024-03-28T21:23:25.515Z,12.63
2024-03-28T21:28:28.674Z,13.49
2024-03-28T21:33:31.269Z,13.11
2024-03-28T21:38:34.771Z,11.21
2024-03-28T21:43:40.986Z,10.86
2024-03-28T21:48:43.603Z,12.52
2024-03-28T21:53:46.476Z,13.39
2024-03-28T21:58:51.102Z,13.74
2024-03-28T22:03:53.736Z,12.27
2024-03-28T22:08:56.614Z,11.25
2024-03-28T22:13:59.252Z,12.70
2024-03-28T22:19:01.932Z,13.75
2024-03-28T22:24:05.312Z,13.57
2024-03-28T22:29:08.016Z,11.78
2024-03-28T22:34:10.659Z,11.47
2024-03-28T22:39:14.055Z,13.16
2024-03-28T22:44:16.600Z,14.19
2024-03-28T22:49:19.167Z,13.49
2024-03-28T22:54:21.819Z,11.90
2024-03-28T22:59:24.444Z,12.89
2024-03-28T23:04:27.023Z,13.62
2024-03-28T23:09:29.626Z,12.02
2024-03-28T23:14:32.228Z,11.62
2024-03-28T23:19:34.916Z,13.34
2024-03-28T23:24:37.566Z,13.51
2024-03-28T23:29:40.791Z,11.83
2024-03-28T23:34:43.370Z,12.16
2024-03-28T23:39:45.991Z,13.67
2024-03-28T23:44:48.721Z,13.43
2024-03-28T23:49:52.141Z,11.67
2024-03-28T23:54:54.728Z,11.33
2024-03-28T23:59:58.663Z,12.97
